createdAt,value
2023-03-26T00:01:45.806Z,4.30
2023-03-26T00:04:14.520Z,2.90
2023-03-26T00:06:43.629Z,3.20
2023-03-26T00:09:12.954Z,3.90
2023-03-26T00:11:42.221Z,4.30
2023-03-26T00:14:13.067Z,4.60
2023-03-26T00:16:42.058Z,3.70
2023-03-26T00:19:12.007Z,4.10
2023-03-26T00:21:41.141Z,4.10
2023-03-26T00:24:14.357Z,5.20
2023-03-26T00:26:43.998Z,4.30
2023-03-26T00:29:13.209Z,4.60
2023-03-26T00:31:45.515Z,4.10
2023-03-26T00:34:17.580Z,3.70
2023-03-26T00:39:17.083Z,3.30
2023-03-26T00:41:45.845Z,5.50
2023-03-26T00:44:14.563Z,3.70
2023-03-26T00:46:43.385Z,3.80
2023-03-26T00:49:14.098Z,4.20
2023-03-26T00:51:43.195Z,4.50
2023-03-26T00:54:12.825Z,3.50
2023-03-26T00:56:41.651Z,5.50
2023-03-26T00:59:10.612Z,4.00
2023-03-26T01:01:39.423Z,4.60
2023-03-26T01:04:29.725Z,4.10
2023-03-26T01:07:01.170Z,4.00
2023-03-26T01:09:34.882Z,4.20
2023-03-26T01:12:06.961Z,4.10
2023-03-26T01:17:06.642Z,4.40
2023-03-26T01:19:44.091Z,3.80
2023-03-26T01:22:16.233Z,3.50
2023-03-26T01:27:26.113Z,3.60
2023-03-26T01:29:58.357Z,4.30
2023-03-26T01:32:40.410Z,5.70
2023-03-26T01:35:18.928Z,3.20
2023-03-26T01:38:01.473Z,5.90
2023-03-26T01:40:37.981Z,5.90
2023-03-26T01:43:12.722Z,3.50
2023-03-26T01:45:45.350Z,3.90
2023-03-26T01:48:14.281Z,2.60
2023-03-26T01:50:43.023Z,3.20
2023-03-26T01:53:13.420Z,4.10
2023-03-26T01:55:55.504Z,3.70
2023-03-26T01:58:31.345Z,3.10
2023-03-26T02:01:13.704Z,3.70
2023-03-26T02:06:20.755Z,3.70
2023-03-26T02:08:54.116Z,2.80
2023-03-26T02:11:23.418Z,2.60
2023-03-26T02:13:52.987Z,2.70
2023-03-26T02:16:22.212Z,3.90
2023-03-26T02:18:55.232Z,3.90
2023-03-26T02:21:25.503Z,3.10
2023-03-26T02:24:02.024Z,3.60
2023-03-26T02:26:34.101Z,2.40
2023-03-26T02:29:13.428Z,3.40
2023-03-26T02:31:43.703Z,5.10
2023-03-26T02:34:12.520Z,2.50
2023-03-26T02:36:42.627Z,2.00
2023-03-26T02:39:13.731Z,4.30
2023-03-26T02:41:43.746Z,2.40
2023-03-26T02:44:13.782Z,4.00
2023-03-26T02:47:00.828Z,4.40
2023-03-26T02:49:48.021Z,5.50
2023-03-26T02:52:37.426Z,2.70
2023-03-26T02:55:07.192Z,3.90
2023-03-26T02:57:36.509Z,3.00
2023-03-26T03:00:22.065Z,2.90
2023-03-26T03:02:57.685Z,3.00
2023-03-26T03:05:33.628Z,2.40
2023-03-26T03:11:21.498Z,3.70
2023-03-26T03:13:52.269Z,4.10
2023-03-26T03:16:25.773Z,3.80
2023-03-26T03:18:57.299Z,3.70
2023-03-26T03:21:29.061Z,6.00
2023-03-26T03:24:00.037Z,3.80
2023-03-26T03:26:30.162Z,2.20
2023-03-26T03:29:00.651Z,4.50
2023-03-26T03:31:29.494Z,3.10
2023-03-26T03:34:02.581Z,3.10
2023-03-26T03:36:33.013Z,2.90
2023-03-26T03:39:07.070Z,2.20
2023-03-26T03:41:36.215Z,3.10
2023-03-26T03:44:06.255Z,3.30
2023-03-26T03:46:36.030Z,3.30
2023-03-26T03:49:04.804Z,5.10
2023-03-26T03:51:37.296Z,5.70
2023-03-26T03:54:17.437Z,6.20
2023-03-26T03:56:48.908Z,10.80
2023-03-26T03:59:53.016Z,7.50
2023-03-26T04:02:29.631Z,6.40
2023-03-26T04:05:00.827Z,5.70
2023-03-26T04:07:31.682Z,6.20
2023-03-26T04:10:09.542Z,5.40
2023-03-26T04:12:58.236Z,8.60
2023-03-26T04:15:43.543Z,7.70
2023-03-26T04:18:12.376Z,5.40
2023-03-26T04:20:45.856Z,6.30
2023-03-26T04:23:18.421Z,5.90
2023-03-26T04:25:53.132Z,7.50
2023-03-26T04:28:29.828Z,5.50
2023-03-26T04:31:23.431Z,5.90
2023-03-26T04:33:54.626Z,5.00
2023-03-26T04:36:28.310Z,2.80
2023-03-26T04:39:01.803Z,5.30
2023-03-26T04:41:49.089Z,4.70
2023-03-26T04:44:21.941Z,5.80
2023-03-26T04:46:56.390Z,4.80
2023-03-26T04:49:30.892Z,9.40
2023-03-26T04:51:59.829Z,7.60
2023-03-26T04:54:51.719Z,9.20
2023-03-26T04:57:25.388Z,18.70
2023-03-26T05:00:00.177Z,7.40
2023-03-26T05:02:33.522Z,3.60
2023-03-26T05:05:05.815Z,3.30
2023-03-26T05:07:35.179Z,4.70
2023-03-26T05:10:05.209Z,5.30
2023-03-26T05:13:06.039Z,5.30
2023-03-26T05:15:41.986Z,7.00
2023-03-26T05:18:10.653Z,6.00
2023-03-26T05:20:48.749Z,6.90
2023-03-26T05:23:17.447Z,3.00
2023-03-26T05:25:57.009Z,7.20
2023-03-26T05:28:48.514Z,3.50
2023-03-26T05:31:34.447Z,6.50
2023-03-26T05:34:17.022Z,5.60
2023-03-26T05:37:01.226Z,4.20
2023-03-26T05:40:00.051Z,3.60
2023-03-26T05:42:46.952Z,4.30
2023-03-26T05:45:49.273Z,3.30
2023-03-26T05:54:00.030Z,5.80
2023-03-26T05:56:57.866Z,4.00
2023-03-26T05:59:47.276Z,4.30
2023-03-26T06:02:42.462Z,4.10
2023-03-26T06:05:33.577Z,7.00
2023-03-26T06:08:12.152Z,5.50
2023-03-26T06:13:09.966Z,2.70
2023-03-26T06:18:20.013Z,2.50
2023-03-26T06:21:01.373Z,3.60
2023-03-26T06:23:41.325Z,3.70
2023-03-26T06:26:37.298Z,3.20
2023-03-26T06:29:26.708Z,2.00
2023-03-26T06:32:36.777Z,5.30
2023-03-26T06:35:12.364Z,2.70
2023-03-26T06:37:56.671Z,2.50
2023-03-26T06:40:29.448Z,4.10
2023-03-26T06:43:15.724Z,4.70
2023-03-26T06:45:58.895Z,3.60
2023-03-26T06:48:42.353Z,4.00
2023-03-26T06:51:20.383Z,2.40
2023-03-26T06:54:08.452Z,3.30
2023-03-26T06:57:05.869Z,3.50
2023-03-26T06:59:57.862Z,1.30
2023-03-26T07:03:03.742Z,3.70
2023-03-26T07:05:53.443Z,5.60
2023-03-26T07:08:41.941Z,2.30
2023-03-26T07:11:34.020Z,2.10
2023-03-26T07:14:27.340Z,4.10
2023-03-26T07:17:09.579Z,2.90
2023-03-26T07:19:53.832Z,2.00
2023-03-26T07:22:29.186Z,2.20
2023-03-26T07:25:10.335Z,1.80
2023-03-26T07:28:04.968Z,1.80
2023-03-26T07:31:00.061Z,2.40
2023-03-26T07:33:49.265Z,2.60
2023-03-26T07:36:57.117Z,2.40
2023-03-26T07:39:44.242Z,2.30
2023-03-26T07:42:34.430Z,2.60
2023-03-26T07:45:25.803Z,1.00
2023-03-26T07:48:17.073Z,2.30
2023-03-26T07:51:11.169Z,2.30
2023-03-26T07:54:27.743Z,2.60
2023-03-26T07:57:34.620Z,3.10
2023-03-26T08:00:44.396Z,1.70
2023-03-26T08:03:34.682Z,3.80
2023-03-26T08:06:32.432Z,3.00
2023-03-26T08:09:20.020Z,1.90
2023-03-26T08:12:24.564Z,1.50
2023-03-26T08:15:12.019Z,2.20
2023-03-26T08:17:57.316Z,2.60
2023-03-26T08:20:42.912Z,2.90
2023-03-26T08:23:27.065Z,1.80
2023-03-26T08:26:19.626Z,3.10
2023-03-26T08:29:18.098Z,2.60
2023-03-26T08:31:53.851Z,2.00
2023-03-26T08:34:47.500Z,1.00
2023-03-26T08:37:21.060Z,2.20
2023-03-26T08:39:54.036Z,3.40
2023-03-26T08:43:01.682Z,2.00
2023-03-26T08:45:53.125Z,0.80
2023-03-26T08:49:03.661Z,3.30
2023-03-26T08:52:09.626Z,1.20
2023-03-26T08:54:56.860Z,1.70
2023-03-26T08:57:56.088Z,0.90
2023-03-26T09:00:53.427Z,2.20
2023-03-26T09:03:38.177Z,2.00
2023-03-26T09:06:29.097Z,2.90
2023-03-26T09:09:31.351Z,3.00
2023-03-26T09:15:23.478Z,1.90
2023-03-26T09:18:25.072Z,3.30
2023-03-26T09:21:27.370Z,2.40
2023-03-26T09:24:32.426Z,1.60
2023-03-26T09:27:16.026Z,1.20
2023-03-26T09:30:10.897Z,0.90
2023-03-26T09:33:17.926Z,0.90
2023-03-26T09:36:02.141Z,2.00
2023-03-26T09:38:43.042Z,1.40
2023-03-26T09:41:18.284Z,1.50
2023-03-26T09:44:08.205Z,1.90
2023-03-26T09:46:46.700Z,1.70
2023-03-26T09:49:44.952Z,2.00
2023-03-26T09:52:35.505Z,1.90
2023-03-26T09:55:39.288Z,1.30
2023-03-26T09:58:29.884Z,1.50
2023-03-26T10:01:10.561Z,4.20
2023-03-26T10:03:56.326Z,3.30
2023-03-26T10:06:40.235Z,3.30
2023-03-26T10:09:25.097Z,2.70
2023-03-26T10:12:18.595Z,2.80
2023-03-26T10:14:59.445Z,2.60
2023-03-26T10:17:38.514Z,3.10
2023-03-26T10:20:27.047Z,3.70
2023-03-26T10:23:09.156Z,1.20
2023-03-26T10:28:32.006Z,0.80
2023-03-26T10:31:23.964Z,0.90
2023-03-26T10:34:02.640Z,2.30
2023-03-26T10:36:34.460Z,1.60
2023-03-26T10:42:21.022Z,2.20
2023-03-26T10:45:00.313Z,1.40
2023-03-26T10:48:10.240Z,2.20
2023-03-26T10:51:04.338Z,3.80
2023-03-26T10:53:39.230Z,2.50
2023-03-26T10:56:18.016Z,1.20
2023-03-26T10:58:49.345Z,2.90
2023-03-26T11:03:55.090Z,2.70
2023-03-26T11:06:36.078Z,1.60
2023-03-26T11:09:16.402Z,2.10
2023-03-26T11:11:53.491Z,1.60
2023-03-26T11:14:34.739Z,3.10
2023-03-26T11:17:40.734Z,2.10
2023-03-26T11:20:16.593Z,3.40
2023-03-26T11:22:59.015Z,2.00
2023-03-26T11:25:37.804Z,4.50
2023-03-26T11:28:22.905Z,2.00
2023-03-26T11:31:08.294Z,1.30
2023-03-26T11:33:46.073Z,2.50
2023-03-26T11:36:21.717Z,2.10
2023-03-26T11:39:03.648Z,2.30
2023-03-26T11:41:35.088Z,4.70
2023-03-26T11:44:18.990Z,1.90
2023-03-26T11:46:52.148Z,2.00
2023-03-26T11:49:23.558Z,2.20
2023-03-26T11:51:58.929Z,13.30
2023-03-26T11:54:28.443Z,1.60
2023-03-26T11:57:04.524Z,2.40
2023-03-26T11:59:55.647Z,2.90
2023-03-26T12:02:29.332Z,11.20
2023-03-26T12:05:18.881Z,2.00
2023-03-26T12:08:01.865Z,5.40
2023-03-26T12:10:38.540Z,5.60
2023-03-26T12:13:33.450Z,12.50
2023-03-26T12:16:12.451Z,11.30
2023-03-26T12:18:43.296Z,19.10
2023-03-26T12:21:21.334Z,12.90
2023-03-26T12:24:01.308Z,18.50
2023-03-26T12:26:48.115Z,12.10
2023-03-26T12:29:19.818Z,7.30
2023-03-26T12:31:56.903Z,5.70
2023-03-26T12:34:34.432Z,6.30
2023-03-26T12:37:04.939Z,12.50
2023-03-26T12:40:10.094Z,9.40
2023-03-26T12:44:51.245Z,1.60
2023-03-26T12:48:38.388Z,1.30
2023-03-26T12:51:17.530Z,2.80
2023-03-26T12:54:01.480Z,2.50
2023-03-26T12:56:38.754Z,2.10
2023-03-26T12:59:29.587Z,2.50
2023-03-26T13:05:05.134Z,2.20
2023-03-26T13:07:52.071Z,0.70
2023-03-26T13:10:49.277Z,1.60
2023-03-26T13:13:36.798Z,1.60
2023-03-26T13:16:14.443Z,2.00
2023-03-26T13:18:50.701Z,2.10
2023-03-26T13:21:39.226Z,2.00
2023-03-26T13:24:23.107Z,1.20
2023-03-26T13:27:04.643Z,2.10
2023-03-26T13:29:46.235Z,1.60
2023-03-26T13:32:24.825Z,1.60
2023-03-26T13:35:07.759Z,2.70
2023-03-26T13:37:45.340Z,2.50
2023-03-26T13:40:24.859Z,2.10
2023-03-26T13:43:19.050Z,3.90
2023-03-26T13:45:56.380Z,3.00
2023-03-26T13:48:30.049Z,3.60
2023-03-26T13:51:06.645Z,4.50
2023-03-26T13:53:43.479Z,4.50
2023-03-26T13:56:16.198Z,4.80
2023-03-26T13:58:50.017Z,3.10
2023-03-26T14:01:44.201Z,1.10
2023-03-26T14:04:31.945Z,1.80
2023-03-26T14:07:15.091Z,3.60
2023-03-26T14:09:54.581Z,4.20
2023-03-26T14:12:49.599Z,3.80
2023-03-26T14:15:26.558Z,8.60
2023-03-26T14:18:03.096Z,48.30
2023-03-26T14:21:02.912Z,20.30
2023-03-26T14:24:02.559Z,5.70
2023-03-26T14:26:50.072Z,598.80
2023-03-26T14:29:57.080Z,649.20
2023-03-26T14:32:42.492Z,486.80
2023-03-26T14:35:32.967Z,715.50
2023-03-26T14:38:32.304Z,748.40
2023-03-26T14:41:11.640Z,641.40
2023-03-26T14:44:19.295Z,264.60
2023-03-26T14:47:05.559Z,47.70
2023-03-26T14:50:15.138Z,233.90
2023-03-26T14:52:48.556Z,46.90
2023-03-26T14:55:37.741Z,355.90
2023-03-26T14:58:37.041Z,180.80
2023-03-26T15:01:25.321Z,113.40
2023-03-26T15:04:42.980Z,13.20
2023-03-26T15:07:40.520Z,15.60
2023-03-26T15:10:56.158Z,10.60
2023-03-26T15:13:49.518Z,31.10
2023-03-26T15:16:38.984Z,23.90
2023-03-26T15:19:54.594Z,7.80
2023-03-26T15:22:47.863Z,6.40
2023-03-26T15:25:51.113Z,16.10
2023-03-26T15:28:52.221Z,24.00
2023-03-26T15:31:49.740Z,57.60
2023-03-26T15:34:55.016Z,49.90
2023-03-26T15:38:08.594Z,101.00
2023-03-26T15:41:04.509Z,153.20
2023-03-26T15:44:24.098Z,13.90
2023-03-26T15:47:27.142Z,4.70
2023-03-26T15:50:16.716Z,4.90
2023-03-26T15:52:57.755Z,4.50
2023-03-26T15:55:35.968Z,5.20
2023-03-26T15:58:15.468Z,7.70
2023-03-26T16:00:54.938Z,5.90
2023-03-26T16:03:33.975Z,7.00
2023-03-26T16:06:27.605Z,5.40
2023-03-26T16:09:09.051Z,5.90
2023-03-26T16:11:55.961Z,5.20
2023-03-26T16:14:42.008Z,6.20
2023-03-26T16:17:17.263Z,7.00
2023-03-26T16:19:54.797Z,3.70
2023-03-26T16:22:44.827Z,6.90
2023-03-26T16:25:28.864Z,5.10
2023-03-26T16:28:28.431Z,6.50
2023-03-26T16:31:38.268Z,6.10
2023-03-26T16:34:26.549Z,4.50
2023-03-26T16:36:58.445Z,7.40
2023-03-26T16:39:40.191Z,6.20
2023-03-26T16:42:34.714Z,150.50
2023-03-26T16:45:17.493Z,42.60
2023-03-26T16:47:58.001Z,12.50
2023-03-26T16:50:33.338Z,4.10
2023-03-26T16:53:13.227Z,6.70
2023-03-26T16:55:47.297Z,7.20
2023-03-26T16:58:29.537Z,7.10
2023-03-26T17:01:10.509Z,7.00
2023-03-26T17:03:51.497Z,6.10
2023-03-26T17:06:28.754Z,6.40
2023-03-26T17:09:17.585Z,7.40
2023-03-26T17:11:56.003Z,5.70
2023-03-26T17:14:39.733Z,6.10
2023-03-26T17:17:37.577Z,9.30
2023-03-26T17:20:17.611Z,7.70
2023-03-26T17:22:51.213Z,7.60
2023-03-26T17:25:35.922Z,7.80
2023-03-26T17:28:41.479Z,10.00
2023-03-26T17:31:20.023Z,35.70
2023-03-26T17:33:50.101Z,14.40
2023-03-26T17:36:31.788Z,9.10
2023-03-26T17:39:16.550Z,9.40
2023-03-26T17:42:18.153Z,14.00
2023-03-26T17:44:52.327Z,11.70
2023-03-26T17:47:32.294Z,12.60
2023-03-26T17:50:07.193Z,12.90
2023-03-26T17:52:47.480Z,19.20
2023-03-26T17:55:20.854Z,18.20
2023-03-26T17:57:52.760Z,21.00
2023-03-26T18:00:29.582Z,13.40
2023-03-26T18:03:02.843Z,39.20
2023-03-26T18:05:33.081Z,31.70
2023-03-26T18:08:46.598Z,27.00
2023-03-26T18:11:39.835Z,16.00
2023-03-26T18:14:43.111Z,10.10
2023-03-26T18:17:12.402Z,16.00
2023-03-26T18:19:48.969Z,5.20
2023-03-26T18:22:58.733Z,5.50
2023-03-26T18:25:31.957Z,5.40
2023-03-26T18:28:01.799Z,5.70
2023-03-26T18:30:30.643Z,6.00
2023-03-26T18:33:02.736Z,4.20
2023-03-26T18:35:40.967Z,4.80
2023-03-26T18:38:18.723Z,14.60
2023-03-26T18:41:05.997Z,7.40
2023-03-26T18:43:36.049Z,9.90
2023-03-26T18:46:18.262Z,4.10
2023-03-26T18:48:50.046Z,5.30
2023-03-26T18:51:22.336Z,6.60
2023-03-26T18:53:54.717Z,8.40
2023-03-26T18:56:39.726Z,7.50
2023-03-26T18:59:28.953Z,7.70
2023-03-26T19:01:59.287Z,10.10
2023-03-26T19:04:31.122Z,13.80
2023-03-26T19:07:00.989Z,10.60
2023-03-26T19:09:32.487Z,9.30
2023-03-26T19:12:07.947Z,9.90
2023-03-26T19:14:53.292Z,10.00
2023-03-26T19:17:23.260Z,11.10
2023-03-26T19:19:52.148Z,13.40
2023-03-26T19:22:23.155Z,29.90
2023-03-26T19:24:56.363Z,21.70
2023-03-26T19:27:25.513Z,20.90
2023-03-26T19:29:54.536Z,11.30
2023-03-26T19:32:31.595Z,12.70
2023-03-26T19:35:01.516Z,16.20
2023-03-26T19:37:31.179Z,16.70
2023-03-26T19:40:12.119Z,14.40
2023-03-26T19:42:44.517Z,14.30
2023-03-26T19:45:17.644Z,9.50
2023-03-26T19:47:48.473Z,7.20
2023-03-26T19:50:25.336Z,12.80
2023-03-26T19:53:16.779Z,15.70
2023-03-26T19:55:54.980Z,22.60
2023-03-26T19:58:25.337Z,26.20
2023-03-26T20:00:55.789Z,11.60
2023-03-26T20:03:28.669Z,11.30
2023-03-26T20:05:57.520Z,9.50
2023-03-26T20:08:26.558Z,7.10
2023-03-26T20:10:56.248Z,8.30
2023-03-26T20:13:25.190Z,11.10
2023-03-26T20:16:05.071Z,12.40
2023-03-26T20:18:35.445Z,6.90
2023-03-26T20:21:10.918Z,8.90
2023-03-26T20:23:39.766Z,6.60
2023-03-26T20:26:12.944Z,7.00
2023-03-26T20:28:48.230Z,5.70
2023-03-26T20:31:21.265Z,5.40
2023-03-26T20:33:54.244Z,4.80
2023-03-26T20:36:33.857Z,3.10
2023-03-26T20:39:05.333Z,3.80
2023-03-26T20:41:35.188Z,4.80
2023-03-26T20:44:05.743Z,5.70
2023-03-26T20:46:34.469Z,4.50
2023-03-26T20:49:03.190Z,5.10
2023-03-26T20:51:31.825Z,4.80
2023-03-26T20:54:00.431Z,6.30
2023-03-26T20:56:29.157Z,4.40
2023-03-26T20:59:09.696Z,4.20
2023-03-26T21:01:39.117Z,7.00
2023-03-26T21:04:08.147Z,4.90
2023-03-26T21:06:36.823Z,6.00
2023-03-26T21:09:09.378Z,3.80
2023-03-26T21:11:49.801Z,5.60
2023-03-26T21:14:22.766Z,5.60
2023-03-26T21:16:52.807Z,6.10
2023-03-26T21:19:22.852Z,6.80
2023-03-26T21:22:05.174Z,4.90
2023-03-26T21:24:46.293Z,4.10
2023-03-26T21:27:24.594Z,5.30
2023-03-26T21:29:55.029Z,4.00
2023-03-26T21:32:24.866Z,6.50
2023-03-26T21:37:28.102Z,5.20
2023-03-26T21:39:59.254Z,5.10
2023-03-26T21:42:28.971Z,7.90
2023-03-26T21:44:58.584Z,9.70
2023-03-26T21:47:28.248Z,9.90
2023-03-26T21:49:57.828Z,7.40
2023-03-26T21:52:28.147Z,7.60
2023-03-26T21:55:00.047Z,6.80
2023-03-26T21:57:43.640Z,7.80
2023-03-26T22:00:18.140Z,13.70
2023-03-26T22:02:59.547Z,14.40
2023-03-26T22:05:37.085Z,16.20
2023-03-26T22:08:08.031Z,14.30
2023-03-26T22:10:36.840Z,12.70
2023-03-26T22:13:05.697Z,9.20
2023-03-26T22:15:34.867Z,9.10
2023-03-26T22:18:04.515Z,9.20
2023-03-26T22:20:33.450Z,9.70
2023-03-26T22:23:02.612Z,9.60
2023-03-26T22:25:32.300Z,12.30
2023-03-26T22:28:01.471Z,12.90
2023-03-26T22:30:30.334Z,13.10
2023-03-26T22:32:59.150Z,16.50
2023-03-26T22:35:27.908Z,11.90
2023-03-26T22:38:00.714Z,8.00
2023-03-26T22:40:30.034Z,10.40
2023-03-26T22:42:58.684Z,10.00
2023-03-26T22:45:27.518Z,10.80
2023-03-26T22:48:03.681Z,7.40
2023-03-26T22:50:34.297Z,8.60
2023-03-26T22:53:03.151Z,11.60
2023-03-26T22:55:31.771Z,10.20
2023-03-26T22:58:00.524Z,9.50
2023-03-26T23:00:30.125Z,10.50
2023-03-26T23:02:59.487Z,9.90
2023-03-26T23:05:28.678Z,12.80
2023-03-26T23:07:57.592Z,12.10
2023-03-26T23:10:26.200Z,12.00
2023-03-26T23:12:55.198Z,12.00
2023-03-26T23:15:25.264Z,13.90
2023-03-26T23:17:54.363Z,13.20
2023-03-26T23:20:23.672Z,17.40
2023-03-26T23:22:52.784Z,12.30
2023-03-26T23:25:21.527Z,13.10
2023-03-26T23:27:50.141Z,12.90
2023-03-26T23:30:19.012Z,12.70
2023-03-26T23:32:47.662Z,10.60
2023-03-26T23:35:16.858Z,9.50
2023-03-26T23:37:45.534Z,10.00
2023-03-26T23:40:15.096Z,10.00
2023-03-26T23:42:43.720Z,10.20
2023-03-26T23:45:13.066Z,11.10
2023-03-26T23:47:41.836Z,11.00
2023-03-26T23:50:12.224Z,10.40
2023-03-26T23:52:40.956Z,10.60
2023-03-26T23:55:10.533Z,14.10
2023-03-26T23:57:40.089Z,13.20
